Time;durP1;ratioP1;P1;durP2;ratioP2;P2;SDS_P1;SDS_P2;PMS_P1;PMS_P2;Temp;Humidity;BMP_temperature;BMP_pressure;BME280_temperature;BME280_humidity;BME280_pressure;Samples;Min_cycle;Max_cycle;Signal;HPM_P1;HPM_P2
2023/08/19 04:05:58;;;;;;;15.30;5.67;;;;;;;31.88;70.16;100583.97;4867770;28;2381075;-31
2023/08/19 04:08:31;;;;;;;9.95;4.80;;;;;;;31.96;69.70;100585.53;4931754;28;70534;-30
2023/08/19 04:22:18;;;;;;;5.47;4.95;;;;;;;31.87;70.93;100582.28;4943869;28;67293;-40
2023/08/19 04:25:21;;;;;;;14.35;4.70;;;;;;;31.88;71.04;100581.25;4954388;28;69659;-31
2023/08/19 04:27:52;;;;;;;7.55;5.00;;;;;;;31.95;69.71;100556.72;4932185;28;65385;-35
2023/08/19 04:30:24;;;;;;;11.85;5.10;;;;;;;31.94;69.64;100552.38;4921519;28;70124;-32
2023/08/19 04:32:58;;;;;;;10.27;5.13;;;;;;;32.05;69.39;100568.66;4931261;28;66356;-32
2023/08/19 04:35:29;;;;;;;8.32;4.40;;;;;;;32.09;69.17;100566.28;4933466;28;70273;-33
2023/08/19 04:37:59;;;;;;;9.35;4.60;;;;;;;32.10;69.15;100559.81;4928087;28;66671;-32
2023/08/19 04:40:30;;;;;;;14.00;4.75;;;;;;;32.05;69.20;100541.53;4929691;28;70659;-31
2023/08/19 04:43:01;;;;;;;15.27;4.73;;;;;;;32.09;69.15;100541.88;4930328;28;66325;-32
2023/08/19 04:45:31;;;;;;;9.75;4.88;;;;;;;32.12;68.76;100535.16;4917621;28;70640;-31
2023/08/19 04:48:01;;;;;;;8.23;4.57;;;;;;;32.07;68.72;100521.47;4903927;28;66874;-32
2023/08/19 04:50:32;;;;;;;17.77;4.25;;;;;;;32.13;68.85;100523.25;4909269;28;69374;-31
2023/08/19 04:53:04;;;;;;;7.30;4.18;;;;;;;32.10;68.66;100515.59;4921041;28;65211;-31
2023/08/19 04:55:37;;;;;;;7.72;4.32;;;;;;;32.13;68.84;100509.69;4896233;28;70359;-33
2023/08/19 04:58:08;;;;;;;8.50;4.75;;;;;;;32.05;68.63;100498.13;4897258;28;66785;-33
2023/08/19 05:00:38;;;;;;;6.07;4.15;;;;;;;32.20;68.67;100502.22;4919522;28;70414;-32
2023/08/19 05:03:08;;;;;;;6.10;4.32;;;;;;;32.21;68.36;100495.75;4904312;28;65587;-33
2023/08/19 05:05:40;;;;;;;6.57;4.25;;;;;;;32.16;68.38;100479.34;4901468;28;70580;-32
2023/08/19 05:08:11;;;;;;;5.93;4.30;;;;;;;32.08;68.55;100458.81;4912516;28;67073;-32
2023/08/19 05:10:41;;;;;;;9.03;4.43;;;;;;;32.19;68.55;100470.72;4892036;28;71055;-31
2023/08/19 05:13:30;;;;;;;6.00;4.07;;;;;;;32.13;68.71;100467.09;4915070;28;65177;-31
2023/08/19 05:16:19;;;;;;;4.95;4.13;;;;;;;32.21;68.60;100471.31;4916816;28;70049;-31
2023/08/19 05:19:22;;;;;;;5.70;3.72;;;;;;;32.13;68.90;100466.25;4907508;28;65605;-31
2023/08/19 05:21:53;;;;;;;17.50;4.30;;;;;;;32.23;68.38;100450.19;4914736;28;70196;-33
2023/08/19 05:24:23;;;;;;;15.00;4.53;;;;;;;32.25;68.24;100448.88;4929567;28;66124;-34
2023/08/19 05:26:54;;;;;;;11.18;4.85;;;;;;;32.13;67.97;100422.84;4912157;28;70066;-32
2023/08/19 05:29:24;;;;;;;20.02;4.75;;;;;;;32.13;67.21;100428.28;4920527;28;65741;-39
2023/08/19 05:31:57;;;;;;;12.43;4.85;;;;;;;32.08;66.37;100428.16;4918820;28;70012;-33
2023/08/19 05:34:27;;;;;;;10.13;4.38;;;;;;;31.97;65.43;100427.13;4909732;28;66463;-32
2023/08/19 05:36:57;;;;;;;11.90;4.15;;;;;;;31.82;63.43;100414.03;4923945;28;70406;-32
2023/08/19 05:39:27;;;;;;;5.35;4.30;;;;;;;31.76;62.68;100428.50;4919815;28;66699;-32
2023/08/19 05:41:58;;;;;;;8.40;4.50;;;;;;;31.65;62.41;100416.66;4914212;28;69431;-33
2023/08/19 05:44:28;;;;;;;5.78;4.15;;;;;;;31.57;60.20;100433.25;4899241;28;65355;-32
2023/08/19 05:46:58;;;;;;;7.07;4.13;;;;;;;31.53;61.19;100421.22;4929320;28;70215;-32
2023/08/19 05:49:29;;;;;;;8.30;4.03;;;;;;;31.53;61.00;100423.94;4915362;28;66195;-34
2023/08/19 05:52:00;;;;;;;5.20;4.10;;;;;;;31.35;58.46;100416.72;4931831;28;71460;-31
2023/08/19 05:54:30;;;;;;;7.20;3.90;;;;;;;31.25;57.22;100394.78;4920210;28;66193;-33
2023/08/19 05:57:00;;;;;;;10.75;4.00;;;;;;;31.27;57.85;100387.25;4918089;28;70285;-32
2023/08/19 05:59:31;;;;;;;6.15;3.90;;;;;;;31.29;58.21;100390.56;4919176;28;66296;-32
2023/08/19 06:02:01;;;;;;;12.45;4.07;;;;;;;31.15;56.53;100360.16;4892171;28;68975;-32
2023/08/19 06:04:31;;;;;;;5.93;3.60;;;;;;;31.24;56.30;100377.72;4911352;28;66409;-32
2023/08/19 06:07:01;;;;;;;4.78;3.92;;;;;;;31.20;55.05;100371.09;4917057;28;68852;-32
2023/08/19 06:09:31;;;;;;;6.60;4.10;;;;;;;31.20;54.57;100370.28;4918293;28;65998;-33
2023/08/19 06:12:22;;;;;;;7.93;3.90;;;;;;;31.15;53.20;100363.69;4919767;28;70514;-32
2023/08/19 06:14:52;;;;;;;32.45;5.45;;;;;;;31.26;59.77;100361.19;4911122;28;65523;-31
2023/08/19 06:17:23;;;;;;;240.82;12.60;;;;;;;31.39;60.96;100342.03;4923012;28;70654;-30
2023/08/19 06:19:59;;;;;;;165.00;10.48;;;;;;;31.48;60.54;100348.75;4895141;28;64317;-32
2023/08/19 06:22:30;;;;;;;150.07;10.38;;;;;;;31.47;59.96;100347.09;4910609;28;69951;-31
2023/08/19 06:25:02;;;;;;;111.60;10.35;;;;;;;31.45;58.99;100330.22;4920414;28;66505;-31
2023/08/19 06:27:33;;;;;;;104.75;9.38;;;;;;;31.35;58.26;100321.88;4914603;28;70133;-31
2023/08/19 06:30:03;;;;;;;68.10;8.10;;;;;;;31.42;57.95;100319.88;4926719;28;66638;-33
2023/08/19 06:32:34;;;;;;;81.32;7.95;;;;;;;31.41;57.18;100317.41;4912497;28;69509;-32
2023/08/19 06:35:05;;;;;;;68.97;7.07;;;;;;;31.43;56.60;100310.69;4893226;28;65865;-33
2023/08/19 06:37:55;;;;;;;49.70;6.90;;;;;;;31.31;53.75;100293.56;4914909;28;69749;-32
2023/08/19 06:40:28;;;;;;;43.72;6.80;;;;;;;30.92;54.58;100222.81;4911957;28;66111;-31
2023/08/19 06:43:00;;;;;;;30.00;6.47;;;;;;;31.40;54.92;100300.34;4913839;28;69645;-31
2023/08/19 06:45:31;;;;;;;36.47;6.28;;;;;;;31.39;54.28;100304.09;4896573;28;65409;-33
2023/08/19 06:48:03;;;;;;;26.85;5.43;;;;;;;31.12;53.84;100265.78;4924143;28;69822;-31
2023/08/19 06:50:33;;;;;;;;;;;;;;;31.10;50.49;100306.69;4914215;28;65760;-33
2023/08/19 06:53:05;;;;;;;25.75;5.32;;;;;;;31.36;53.26;100309.97;4918186;28;70453;-31
2023/08/19 06:55:40;;;;;;;29.83;5.68;;;;;;;31.37;51.75;100312.47;4916017;28;65380;-31
2023/08/19 06:58:28;;;;;;;18.67;4.53;;;;;;;30.89;49.74;100224.13;4913311;28;70241;-31
2023/08/19 07:01:03;;;;;;;16.20;5.03;;;;;;;31.00;50.18;100225.16;4909411;28;65278;-31
2023/08/19 07:03:36;;;;;;;13.95;4.20;;;;;;;31.37;50.22;100263.69;4924193;28;69870;-31
2023/08/19 07:06:08;;;;;;;11.00;4.47;;;;;;;30.89;50.42;100179.97;4912113;28;66316;-31
2023/08/19 07:08:39;;;;;;;;;;;;;;;31.09;48.29;100245.44;4916278;28;70790;-31
2023/08/19 07:11:10;;;;;;;12.18;4.30;;;;;;;31.35;50.72;100244.09;4925092;28;67749;-31
2023/08/19 07:13:42;;;;;;;;;;;;;;;31.10;47.75;100236.25;4919645;28;69408;-30
2023/08/19 07:16:13;;;;;;;17.17;3.65;;;;;;;31.21;50.24;100225.63;4922818;28;66515;-30
2023/08/19 07:18:51;;;;;;;22.55;4.28;;;;;;;31.34;48.02;100238.91;4917603;28;69745;-31
2023/08/19 07:21:26;;;;;;;12.75;3.85;;;;;;;31.03;48.97;100165.09;4911306;28;65324;-32
2023/08/19 07:23:58;;;;;;;12.07;4.38;;;;;;;30.84;49.03;100139.22;4917461;28;69622;-30
2023/08/19 07:26:30;;;;;;;13.73;4.32;;;;;;;31.36;49.88;100224.09;4915238;28;66276;-31
2023/08/19 07:29:00;;;;;;;;;;;;;;;31.11;46.43;100227.03;4914120;28;70325;-30
2023/08/19 07:31:31;;;;;;;10.60;4.10;;;;;;;31.36;49.27;100240.34;4927130;28;66712;-30
2023/08/19 07:34:01;;;;;;;9.98;4.30;;;;;;;31.37;48.91;100235.75;4916408;28;69892;-31
2023/08/19 07:36:37;;;;;;;6.30;3.58;;;;;;;31.34;49.12;100237.03;4913650;28;66800;-31
2023/08/19 07:39:42;;;;;;;6.78;4.13;;;;;;;31.28;48.60;100220.88;4894938;28;68545;-31
2023/08/19 07:42:13;;;;;;;7.38;3.88;;;;;;;31.36;48.62;100234.91;4873219;29;65165;-32
2023/08/19 07:44:43;;;;;;;5.57;3.90;;;;;;;31.35;48.25;100248.69;4906904;28;69713;-32
2023/08/19 07:47:35;;;;;;;9.05;4.35;;;;;;;31.36;47.01;100250.38;4915092;28;66676;-31
2023/08/19 07:50:07;;;;;;;13.65;3.88;;;;;;;31.41;48.87;100252.38;4917049;28;70244;-30
2023/08/19 07:52:37;;;;;;;27.40;4.38;;;;;;;31.56;50.33;100261.63;4896751;28;66108;-31
2023/08/19 07:55:10;;;;;;;100.13;7.90;;;;;;;31.71;52.60;100263.03;4913576;28;70064;-32
2023/08/19 07:57:50;;;;;;;47.17;6.15;;;;;;;31.64;59.19;100256.91;4893266;28;65350;-32
2023/08/19 08:00:21;;;;;;;44.22;6.68;;;;;;;31.59;61.85;100261.16;4914981;28;69030;-32
2023/08/19 08:02:51;;;;;;;43.88;7.43;;;;;;;31.53;62.71;100245.84;4912181;28;65782;-31
2023/08/19 08:05:21;;;;;;;64.25;7.57;;;;;;;31.60;62.82;100254.66;4914898;28;70216;-31
2023/08/19 08:07:52;;;;;;;69.03;7.85;;;;;;;31.60;63.04;100243.81;4919617;28;66688;-32
2023/08/19 08:10:22;;;;;;;54.53;8.00;;;;;;;31.67;64.72;100227.41;4912482;28;70403;-30
2023/08/19 08:12:52;;;;;;;69.57;7.55;;;;;;;31.75;65.30;100216.19;4922485;28;66334;-31
2023/08/19 08:15:23;;;;;;;46.65;6.70;;;;;;;31.73;65.79;100201.22;4920009;28;69583;-31
2023/08/19 08:17:53;;;;;;;39.10;6.60;;;;;;;31.83;66.79;100207.66;4908132;28;66083;-31
2023/08/19 08:20:24;;;;;;;32.17;5.63;;;;;;;31.89;67.16;100216.72;4913421;28;69492;-31
2023/08/19 08:22:54;;;;;;;36.00;6.53;;;;;;;31.89;67.50;100205.84;4897122;28;66399;-31
2023/08/19 08:25:25;;;;;;;21.08;6.13;;;;;;;31.97;67.24;100208.22;4934048;28;69057;-31
2023/08/19 08:27:55;;;;;;;31.92;7.35;;;;;;;32.07;67.22;100217.59;4923477;28;65987;-31
2023/08/19 08:30:25;;;;;;;49.67;9.27;;;;;;;32.04;68.18;100218.94;4920298;28;68967;-32
2023/08/19 08:32:56;;;;;;;53.22;11.18;;;;;;;32.11;68.95;100224.19;4923546;28;66402;-30
2023/08/19 08:35:27;;;;;;;63.53;13.30;;;;;;;32.02;69.10;100208.31;4910976;28;69165;-31
2023/08/19 08:37:57;;;;;;;66.70;14.55;;;;;;;32.18;69.32;100230.25;4919927;28;66622;-32
2023/08/19 08:40:32;;;;;;;69.97;13.95;;;;;;;32.13;69.62;100224.78;4919082;28;70485;-31
2023/08/19 08:43:03;;;;;;;31.52;10.60;;;;;;;32.61;67.74;100223.41;4915687;28;66737;-33
2023/08/19 08:45:36;;;;;;;37.42;10.65;;;;;;;32.98;65.78;100239.16;4906448;28;70377;-32
2023/08/19 08:48:07;;;;;;;33.35;11.02;;;;;;;33.11;64.66;100228.78;4926385;28;65762;-32
2023/08/19 08:50:38;;;;;;;24.75;10.25;;;;;;;33.25;64.59;100217.56;4923052;28;70168;-32
2023/08/19 08:53:08;;;;;;;32.38;9.98;;;;;;;33.32;64.62;100213.59;4917260;28;66934;-33
2023/08/19 08:55:56;;;;;;;31.13;10.70;;;;;;;33.41;64.23;100210.44;4894362;28;70416;-32
2023/08/19 08:58:26;;;;;;;34.63;10.07;;;;;;;33.40;64.40;100208.78;4914990;28;66175;-33
2023/08/19 09:00:56;;;;;;;56.88;14.02;;;;;;;33.50;64.72;100219.78;4920350;28;70286;-32
2023/08/19 09:03:32;;;;;;;40.22;11.75;;;;;;;33.47;65.31;100212.94;4915727;28;66409;-33
2023/08/19 09:06:10;;;;;;;36.17;10.85;;;;;;;33.30;63.98;100193.97;4895701;28;69905;-34
2023/08/19 09:09:02;;;;;;;26.27;9.77;;;;;;;33.55;65.19;100245.16;4922510;28;65837;-33
2023/08/19 09:11:39;;;;;;;31.38;10.85;;;;;;;33.59;65.16;100240.03;4921720;28;69031;-32
2023/08/19 09:14:31;;;;;;;33.90;11.43;;;;;;;33.36;65.64;100198.41;4914834;28;65937;-39
2023/08/19 09:17:03;;;;;;;24.23;9.95;;;;;;;33.65;65.03;100243.63;4916773;28;68999;-34
2023/08/19 09:19:35;;;;;;;16.48;9.15;;;;;;;33.66;64.40;100234.41;4925658;28;65741;-33
2023/08/19 09:22:20;;;;;;;25.98;9.48;;;;;;;33.33;64.15;100193.47;4925987;28;69032;-32
2023/08/19 09:24:53;;;;;;;23.42;8.57;;;;;;;33.68;63.25;100233.06;4901931;28;66552;-34
2023/08/19 09:27:28;;;;;;;30.50;9.50;;;;;;;33.69;63.63;100251.03;4911461;28;70350;-34
2023/08/19 09:29:59;;;;;;;16.98;10.45;;;;;;;33.65;63.28;100249.88;4923793;28;65636;-33
2023/08/19 09:32:38;;;;;;;20.17;10.57;;;;;;;33.69;63.99;100277.41;4922542;28;70387;-34
2023/08/19 09:35:14;;;;;;;16.13;10.52;;;;;;;33.68;64.20;100290.16;4903788;28;66294;-33
2023/08/19 09:37:45;;;;;;;16.15;11.02;;;;;;;33.66;64.09;100289.63;4916638;28;70696;-34
2023/08/19 09:40:44;;;;;;;57.60;14.25;;;;;;;33.66;64.13;100289.63;4915510;28;65749;-34
2023/08/19 09:43:14;;;;;;;32.75;12.30;;;;;;;33.65;64.13;100293.41;4930214;28;69913;-33
2023/08/19 09:45:48;;;;;;;18.23;10.48;;;;;;;33.43;63.63;100257.19;4923302;28;65142;-33
2023/08/19 09:48:22;;;;;;;19.80;10.43;;;;;;;33.40;63.40;100257.69;4927288;28;71044;-33
2023/08/19 09:50:52;;;;;;;16.98;10.50;;;;;;;33.64;63.77;100297.22;4921006;28;66996;-32
2023/08/19 09:53:23;;;;;;;24.83;10.18;;;;;;;33.61;64.02;100286.84;4922449;28;70175;-35
2023/08/19 09:55:53;;;;;;;13.13;9.38;;;;;;;33.60;64.60;100285.19;4894444;28;66513;-39
2023/08/19 09:58:25;;;;;;;16.23;8.75;;;;;;;33.66;64.51;100289.63;4925305;28;70304;-33
2023/08/19 10:00:56;;;;;;;22.60;9.45;;;;;;;33.65;64.93;100304.28;4917495;28;66331;-33
2023/08/19 10:03:27;;;;;;;23.42;9.90;;;;;;;33.63;65.07;100300.16;4898508;28;70346;-32
2023/08/19 10:05:57;;;;;;;24.70;11.13;;;;;;;33.64;65.00;100313.53;4923637;28;66530;-31
2023/08/19 10:08:32;;;;;;;21.77;9.95;;;;;;;33.65;65.30;100320.59;4910547;28;70245;-34
2023/08/19 10:11:13;;;;;;;21.55;9.23;;;;;;;33.63;65.24;100322.78;4905738;28;66726;-38
2023/08/19 10:13:45;;;;;;;20.27;8.68;;;;;;;33.62;65.29;100320.28;4916732;28;69878;-33
2023/08/19 10:16:16;;;;;;;11.98;7.55;;;;;;;33.63;65.43;100328.22;4917019;28;67271;-33
2023/08/19 10:18:48;;;;;;;13.65;7.60;;;;;;;33.62;65.24;100340.13;4912834;28;70079;-33
2023/08/19 10:21:20;;;;;;;;;;;;;;;33.56;65.61;100338.44;4910867;28;66921;-36
2023/08/19 10:23:50;;;;;;;;;;;;;;;33.62;65.25;100348.31;4909821;28;70426;-34
2023/08/19 10:26:21;;;;;;;10.75;6.72;;;;;;;33.38;65.37;100305.00;4910624;28;66851;-34
2023/08/19 10:29:14;;;;;;;10.13;6.72;;;;;;;33.56;65.38;100354.75;4911618;28;69682;-34
2023/08/19 10:31:45;;;;;;;9.52;5.72;;;;;;;33.54;65.79;100374.06;4914935;28;66486;-33
2023/08/19 10:34:18;;;;;;;9.38;6.20;;;;;;;33.54;65.40;100381.38;4914238;28;70666;-33
2023/08/19 10:37:28;;;;;;;9.90;6.45;;;;;;;33.31;65.46;100358.72;4893685;28;66252;-34
2023/08/19 10:40:13;;;;;;;11.52;8.38;;;;;;;33.49;65.52;100405.72;4906968;28;69343;-34
2023/08/19 10:42:52;;;;;;;13.27;8.13;;;;;;;33.44;65.04;100422.00;4916871;28;65148;-33
2023/08/19 10:45:22;;;;;;;17.45;8.52;;;;;;;33.38;64.94;100410.22;4912272;28;69919;-34
2023/08/19 10:47:53;;;;;;;14.13;8.02;;;;;;;33.37;64.98;100411.28;4910525;28;66287;-34
2023/08/19 10:50:25;;;;;;;15.13;8.88;;;;;;;33.38;65.43;100430.06;4905075;28;70420;-32
2023/08/19 10:53:00;;;;;;;31.02;8.45;;;;;;;33.33;65.75;100421.81;4909558;28;66471;-33
2023/08/19 10:55:55;;;;;;;11.35;8.57;;;;;;;33.33;66.21;100421.00;4919026;28;70130;-34
2023/08/19 10:58:26;;;;;;;15.70;8.80;;;;;;;33.34;66.19;100423.47;4886326;28;65176;-33
2023/08/19 11:00:57;;;;;;;21.17;9.50;;;;;;;33.29;66.45;100415.25;4907186;28;70305;-32
2023/08/19 11:03:27;;;;;;;15.52;9.25;;;;;;;33.28;66.34;100413.59;4915775;28;65131;-33
2023/08/19 11:05:58;;;;;;;15.20;9.23;;;;;;;33.28;66.17;100416.31;4913841;28;69813;-32
2023/08/19 11:08:28;;;;;;;11.52;8.45;;;;;;;33.19;66.51;100404.22;4909420;28;65577;-34
2023/08/19 11:10:58;;;;;;;13.45;8.93;;;;;;;33.27;66.30;100406.50;4908715;28;70702;-33
2023/08/19 11:13:28;;;;;;;15.15;8.52;;;;;;;33.22;66.67;100409.16;4911624;28;66105;-33
2023/08/19 11:16:06;;;;;;;17.80;8.68;;;;;;;33.24;66.23;100423.31;4913528;28;70400;-35
2023/08/19 11:18:40;;;;;;;11.23;8.45;;;;;;;33.24;66.17;100427.91;4916732;28;65609;-34
2023/08/19 11:21:12;;;;;;;12.73;8.20;;;;;;;33.20;66.69;100437.63;4912148;28;69802;-35
2023/08/19 11:23:42;;;;;;;10.00;7.50;;;;;;;33.13;66.67;100444.06;4913607;28;65649;-33
2023/08/19 11:26:13;;;;;;;7.70;7.00;;;;;;;33.05;67.45;100432.78;4896120;28;70077;-32
2023/08/19 11:28:43;;;;;;;9.18;7.22;;;;;;;33.06;67.13;100450.72;4913602;28;66691;-34
2023/08/19 11:31:14;;;;;;;11.23;6.60;;;;;;;33.00;67.95;100449.00;4917436;28;70381;-33
2023/08/19 11:33:45;;;;;;;7.22;6.47;;;;;;;32.96;67.37;100436.91;4920113;28;66300;-34
2023/08/19 11:36:15;;;;;;;7.53;6.55;;;;;;;32.92;67.50;100442.03;4917566;28;69241;-34
2023/08/19 11:38:46;;;;;;;6.88;5.93;;;;;;;32.85;67.19;100436.75;4905169;28;66578;-33
2023/08/19 11:41:17;;;;;;;6.55;5.95;;;;;;;32.94;66.95;100456.19;4892987;28;69174;-33
2023/08/19 11:43:47;;;;;;;9.98;6.00;;;;;;;32.96;66.65;100464.09;4908665;28;66538;-34
2023/08/19 11:46:17;;;;;;;6.28;5.68;;;;;;;32.94;66.94;100467.88;4916769;28;70444;-35
2023/08/19 11:48:48;;;;;;;8.75;5.35;;;;;;;32.87;67.08;100459.06;4909057;28;66946;-34
2023/08/19 11:51:19;;;;;;;13.65;5.63;;;;;;;32.81;67.67;100467.38;4905589;28;70138;-33
2023/08/19 11:53:54;;;;;;;7.55;4.50;;;;;;;32.75;68.12;100468.34;4911904;28;64582;-35
2023/08/19 11:56:24;;;;;;;4.40;4.10;;;;;;;32.71;68.31;100471.53;4911416;28;68089;-33
2023/08/19 11:58:55;;;;;;;4.10;3.80;;;;;;;32.70;68.70;100480.75;4913148;28;65755;-38
2023/08/19 12:01:25;;;;;;;4.30;4.00;;;;;;;32.73;68.51;100493.00;4914928;28;70302;-34
2023/08/19 12:03:56;;;;;;;4.72;4.20;;;;;;;32.64;69.09;100480.91;4912530;28;66582;-35
2023/08/19 12:06:31;;;;;;;6.05;3.40;;;;;;;32.47;69.28;100467.25;4913110;28;70336;-37
2023/08/19 12:09:05;;;;;;;9.10;3.53;;;;;;;32.64;69.30;100502.63;4909427;28;65736;-35
2023/08/19 12:11:36;;;;;;;7.07;3.47;;;;;;;32.43;69.61;100488.63;4913623;28;71014;-33
2023/08/19 12:14:07;;;;;;;4.40;3.60;;;;;;;32.57;69.67;100524.50;4883242;28;66156;-37
2023/08/19 12:16:37;;;;;;;12.35;4.15;;;;;;;32.59;69.68;100524.25;4921402;28;70400;-38
2023/08/19 12:19:07;;;;;;;6.88;4.10;;;;;;;32.43;69.95;100498.63;4889488;28;66440;-37
2023/08/19 12:21:56;;;;;;;11.20;4.47;;;;;;;32.58;70.29;100536.19;4918613;28;69857;-37
2023/08/19 12:24:36;;;;;;;4.93;4.30;;;;;;;32.57;70.68;100543.50;4885496;28;65945;-39
2023/08/19 12:27:06;;;;;;;4.43;4.03;;;;;;;32.57;70.76;100548.09;4895454;28;69754;-36
2023/08/19 12:29:36;;;;;;;8.60;4.47;;;;;;;32.47;70.61;100554.97;4916857;28;65952;-36
2023/08/19 12:32:07;;;;;;;6.75;4.18;;;;;;;32.46;70.64;100556.03;4923925;28;70478;-37
2023/08/19 12:34:37;;;;;;;4.80;4.40;;;;;;;32.49;70.77;100566.41;4928632;28;65346;-37
2023/08/19 12:37:08;;;;;;;6.70;4.45;;;;;;;32.48;71.04;100567.50;4915123;28;70411;-36
2023/08/19 12:39:38;;;;;;;5.82;4.38;;;;;;;32.25;71.68;100540.34;4923332;28;65705;-35
2023/08/19 12:42:08;;;;;;;5.47;4.35;;;;;;;32.40;71.83;100575.97;4903673;28;69681;-34
2023/08/19 12:44:39;;;;;;;9.57;4.32;;;;;;;32.40;71.76;100584.13;4901652;28;65952;-35
2023/08/19 12:47:14;;;;;;;11.85;4.35;;;;;;;32.12;71.39;100540.56;4929062;28;70129;-34
2023/08/19 12:49:45;;;;;;;5.00;3.63;;;;;;;32.43;70.90;100583.63;4912777;28;65943;-34
2023/08/19 12:52:15;;;;;;;3.50;3.20;;;;;;;32.41;70.99;100577.59;4912719;28;70426;-33
2023/08/19 12:54:45;;;;;;;2.92;2.63;;;;;;;32.32;70.55;100554.63;4909759;28;65252;-33
2023/08/19 12:57:15;;;;;;;3.63;2.15;;;;;;;32.38;70.72;100567.22;4923351;28;69162;-33
2023/08/19 12:59:46;;;;;;;2.53;2.30;;;;;;;32.38;70.50;100567.22;4917766;28;67067;-35
2023/08/19 13:02:16;;;;;;;3.00;1.90;;;;;;;32.36;70.30;100561.19;4911496;28;69499;-34
2023/08/19 13:04:49;;;;;;;2.60;1.88;;;;;;;32.36;70.34;100563.91;4917357;28;66717;-33
2023/08/19 13:07:19;;;;;;;2.40;1.67;;;;;;;32.31;70.05;100555.66;4913203;28;70460;-34
2023/08/19 13:09:49;;;;;;;1.65;1.55;;;;;;;32.33;70.14;100567.13;4917591;28;65268;-34
2023/08/19 13:12:19;;;;;;;1.48;1.35;;;;;;;32.32;70.07;100579.03;4909537;28;69608;-33
2023/08/19 13:14:50;;;;;;;1.63;1.52;;;;;;;32.29;69.84;100590.38;4903994;28;66106;-34
2023/08/19 13:17:22;;;;;;;1.90;1.65;;;;;;;32.29;69.84;100590.38;4929642;28;70264;-34
2023/08/19 13:19:55;;;;;;;1.35;1.25;;;;;;;32.27;69.80;100597.91;4914997;28;66069;-34
2023/08/19 13:22:27;;;;;;;1.33;1.23;;;;;;;32.24;69.60;100593.78;4909360;28;68925;-33
2023/08/19 13:25:00;;;;;;;1.80;1.30;;;;;;;32.22;69.78;100595.91;4882943;28;66193;-33
2023/08/19 13:27:31;;;;;;;1.15;1.05;;;;;;;32.20;69.68;100602.63;4919007;28;70410;-33
2023/08/19 13:30:01;;;;;;;1.80;1.23;;;;;;;32.22;69.61;100608.66;4900191;28;66069;-35
2023/08/19 13:32:35;;;;;;;1.38;1.00;;;;;;;32.18;69.51;100610.16;4908160;28;70400;-34
2023/08/19 13:35:07;;;;;;;1.25;1.00;;;;;;;32.15;69.72;100619.63;4912938;28;66438;-34
2023/08/19 13:37:37;;;;;;;1.25;0.90;;;;;;;32.12;69.64;100608.41;4900247;28;70094;-35
2023/08/19 13:40:08;;;;;;;1.25;1.00;;;;;;;32.07;69.46;100624.56;4890400;28;66140;-34
2023/08/19 13:42:40;;;;;;;1.27;1.17;;;;;;;32.09;69.50;100641.44;4920926;28;70367;-34
2023/08/19 13:45:10;;;;;;;1.92;0.90;;;;;;;32.09;69.58;100649.59;4919605;28;65642;-33
2023/08/19 13:47:40;;;;;;;1.13;1.02;;;;;;;31.97;69.58;100639.53;4912956;28;69982;-33
2023/08/19 13:50:10;;;;;;;0.93;0.90;;;;;;;32.09;69.23;100671.28;4900200;28;66152;-34
2023/08/19 13:52:45;;;;;;;0.95;0.88;;;;;;;32.08;69.21;100685.94;4917773;28;70457;-33
2023/08/19 13:55:16;;;;;;;1.13;1.02;;;;;;;32.05;69.18;100682.63;4919732;28;65313;-33
2023/08/19 13:57:46;;;;;;;3.42;0.90;;;;;;;32.02;69.51;100688.50;4911874;28;69773;-33
2023/08/19 14:00:18;;;;;;;1.10;1.00;;;;;;;31.99;69.31;100683.56;4920088;28;65639;-35
2023/08/19 14:02:48;;;;;;;1.20;0.90;;;;;;;31.98;68.89;100694.63;4920552;28;69613;-32
2023/08/19 14:05:21;;;;;;;11.40;1.30;;;;;;;31.92;70.27;100699.09;4920941;28;66386;-34
2023/08/19 14:07:55;;;;;;;9.57;2.10;;;;;;;31.87;70.09;100695.38;4913750;28;69700;-34
2023/08/19 14:10:25;;;;;;;8.07;2.38;;;;;;;31.79;70.73;100697.38;4915125;28;65943;-34
2023/08/19 14:12:56;;;;;;;17.17;2.80;;;;;;;31.80;71.45;100720.72;4926953;28;70229;-38
2023/08/19 14:16:37;;;;;;;11.15;3.00;;;;;;;31.74;71.67;100735.22;4885564;29;66548;-39
2023/08/19 14:19:08;;;;;;;19.92;3.30;;;;;;;31.80;72.06;100747.03;4826287;29;70156;-38
2023/08/19 14:21:57;;;;;;;359.85;14.40;;;;;;;31.82;74.20;100759.31;4825755;29;64759;-35
2023/08/19 14:24:35;;;;;;;7.30;2.65;;;;;;;31.87;71.91;100766.72;4892975;28;70349;-35
2023/08/19 14:27:05;;;;;;;4.13;2.78;;;;;;;31.86;71.90;100769.69;4919683;28;66417;-36
2023/08/19 14:29:38;;;;;;;6.22;2.60;;;;;;;31.94;71.60;100780.25;4915040;28;70153;-36
2023/08/19 14:32:09;;;;;;;10.32;2.40;;;;;;;31.92;72.00;100775.03;4904395;28;66338;-35
2023/08/19 14:35:16;;;;;;;2.95;2.10;;;;;;;31.86;70.49;100775.94;4922788;28;69578;-33
2023/08/19 14:38:10;;;;;;;4.23;2.00;;;;;;;31.77;68.74;100769.19;4872624;29;67037;-35
2023/08/19 14:40:43;;;;;;;4.25;1.40;;;;;;;31.78;67.53;100773.53;4900709;28;70260;-34
2023/08/19 14:43:49;;;;;;;2.75;1.25;;;;;;;31.70;66.34;100771.16;4861111;29;65988;-33
2023/08/19 14:46:23;;;;;;;12.18;1.40;;;;;;;31.68;64.95;100770.53;4898444;28;70554;-33
2023/08/19 14:48:54;;;;;;;5.80;0.90;;;;;;;31.63;64.35;100767.72;4909105;28;66757;-33
2023/08/19 14:54:48;;;;;;;8.27;1.35;;;;;;;31.43;64.03;100778.81;4869597;28;65734;-32
2023/08/19 14:57:18;;;;;;;15.68;1.33;;;;;;;31.38;63.61;100787.59;4916500;28;70294;-33
2023/08/19 14:59:48;;;;;;;4.13;1.30;;;;;;;31.36;63.02;100790.53;4882806;28;65282;-33
2023/08/19 15:02:25;;;;;;;6.07;1.33;;;;;;;31.31;62.09;100794.94;4916347;28;69420;-33
2023/08/19 15:04:56;;;;;;;5.00;0.95;;;;;;;31.27;61.75;100797.28;4912609;28;65942;-33
2023/08/19 15:07:26;;;;;;;6.85;1.25;;;;;;;31.23;61.21;100803.34;4913204;28;70302;-34
2023/08/19 15:09:59;;;;;;;5.90;1.05;;;;;;;31.05;60.56;100790.63;4912701;28;65748;-34
2023/08/19 15:12:38;;;;;;;5.55;0.95;;;;;;;31.18;60.22;100823.03;4906615;28;70289;-33
2023/08/19 15:15:11;;;;;;;4.45;0.93;;;;;;;31.13;60.29;100815.56;4915770;28;66157;-34
2023/08/19 15:18:17;;;;;;;2.13;1.00;;;;;;;31.13;59.14;100815.56;4872448;29;70473;-34
2023/08/19 15:20:47;;;;;;;12.32;1.33;;;;;;;31.09;58.82;100825.19;4884771;28;66880;-32
2023/08/19 15:23:17;;;;;;;1.92;0.88;;;;;;;31.05;58.59;100818.53;4920753;28;71671;-34
2023/08/19 15:25:56;;;;;;;1.63;0.70;;;;;;;31.01;57.76;100811.94;4911421;28;65907;-32
2023/08/19 15:28:32;;;;;;;12.15;1.48;;;;;;;30.99;57.78;100819.44;4913590;28;70326;-35
2023/08/19 15:34:08;;;;;;;3.50;0.73;;;;;;;30.90;56.64;100826.22;4833331;29;69143;-33
2023/08/19 15:36:41;;;;;;;2.53;0.82;;;;;;;30.88;56.92;100823.72;4853623;28;66376;-33
2023/08/19 15:39:11;;;;;;;1.45;0.75;;;;;;;30.88;55.49;100828.31;4911809;28;70216;-35
2023/08/19 15:41:41;;;;;;;5.80;0.63;;;;;;;30.82;55.28;100830.00;4917249;28;66157;-33
2023/08/19 15:44:48;;;;;;;4.60;0.60;;;;;;;30.84;55.20;100844.16;4910285;28;70415;-34
2023/08/19 15:47:23;;;;;;;1.63;0.60;;;;;;;30.79;54.74;100835.84;4907732;28;66797;-34
2023/08/19 15:49:53;;;;;;;2.58;0.73;;;;;;;30.74;54.45;100838.38;4889586;28;70332;-33
2023/08/19 15:52:27;;;;;;;1.98;0.60;;;;;;;30.72;54.72;100827.75;4895445;28;65374;-34
2023/08/19 15:54:58;;;;;;;1.10;0.50;;;;;;;30.70;54.09;100832.59;4913501;28;70108;-32
2023/08/19 15:57:28;;;;;;;1.38;0.60;;;;;;;30.68;53.90;100823.84;4918470;28;66776;-34
2023/08/19 15:59:59;;;;;;;1.27;0.50;;;;;;;30.67;54.25;100816.78;4920221;28;68914;-33
2023/08/19 16:02:29;;;;;;;0.85;0.60;;;;;;;30.63;53.12;100810.13;4917564;28;65035;-33
2023/08/19 16:04:59;;;;;;;1.88;0.60;;;;;;;30.64;52.71;100809.06;4917539;28;70510;-32
2023/08/19 16:07:37;;;;;;;0.93;0.50;;;;;;;30.59;53.56;100800.81;4925377;28;66237;-36
2023/08/19 16:10:09;;;;;;;0.85;0.60;;;;;;;30.68;52.87;100799.47;4914522;28;70364;-33
2023/08/19 16:12:40;;;;;;;;;;;;;;;30.64;53.56;100790.13;4923007;28;65415;-34
2023/08/19 16:15:11;;;;;;;2.28;0.63;;;;;;;30.71;51.79;100787.38;4918306;28;70739;-33